createdAt,value
2023-04-25T00:01:57.728Z,99279.53
2023-04-25T00:06:03.352Z,99257.94
2023-04-25T00:10:06.755Z,99246.72
2023-04-25T00:14:08.802Z,99244.19
2023-04-25T00:18:12.175Z,99256.97
2023-04-25T00:22:14.460Z,99262.56
2023-04-25T00:26:16.599Z,99268.28
2023-04-25T00:30:18.669Z,99263.03
2023-04-25T00:34:21.211Z,99257.50
2023-04-25T00:38:23.318Z,99263.84
2023-04-25T00:42:26.325Z,99254.22
2023-04-25T00:46:28.363Z,99259.97
2023-04-25T00:50:30.725Z,99261.66
2023-04-25T00:54:33.001Z,99265.44
2023-04-25T00:58:35.666Z,99264.16
2023-04-25T01:02:38.821Z,99256.75
2023-04-25T01:06:41.862Z,99254.91
2023-04-25T01:10:43.592Z,99252.78
2023-04-25T01:14:45.829Z,99257.81
2023-04-25T01:18:48.266Z,99258.31
2023-04-25T01:22:51.964Z,99251.34
2023-04-25T01:26:57.279Z,99249.00
2023-04-25T01:31:00.762Z,99248.34
2023-04-25T01:35:03.585Z,99250.63
2023-04-25T01:39:05.957Z,99252.19
2023-04-25T01:43:11.986Z,99247.19
2023-04-25T01:47:14.141Z,99247.53
2023-04-25T01:51:16.624Z,99241.34
2023-04-25T01:55:18.863Z,99244.56
2023-04-25T01:59:37.432Z,99248.50
2023-04-25T02:04:02.667Z,99248.81
2023-04-25T02:08:10.261Z,99249.56
2023-04-25T02:12:12.999Z,99243.88
2023-04-25T02:16:36.828Z,99240.88
2023-04-25T02:20:39.184Z,99267.03
2023-04-25T02:24:41.222Z,99274.25
2023-04-25T02:28:43.463Z,99277.09
2023-04-25T02:32:45.833Z,99262.53
2023-04-25T02:36:49.448Z,99272.28
2023-04-25T02:40:53.624Z,99263.41
2023-04-25T02:44:55.844Z,99268.38
2023-04-25T02:48:57.855Z,99272.28
2023-04-25T02:53:00.051Z,99266.28
2023-04-25T02:57:08.603Z,99264.19
2023-04-25T03:01:12.685Z,99280.53
2023-04-25T03:05:15.008Z,99265.28
2023-04-25T03:09:17.846Z,99265.06
2023-04-25T03:13:19.867Z,99261.00
2023-04-25T03:17:22.375Z,99256.09
2023-04-25T03:21:26.116Z,99269.16
2023-04-25T03:25:28.076Z,99262.34
2023-04-25T03:29:30.179Z,99252.53
2023-04-25T03:33:33.788Z,99257.19
2023-04-25T03:37:35.932Z,99269.69
2023-04-25T03:41:38.602Z,99275.78
2023-04-25T03:45:46.959Z,99274.34
2023-04-25T03:49:52.743Z,99286.50
2023-04-25T03:53:57.894Z,99290.13
2023-04-25T03:58:05.995Z,99282.25
2023-04-25T04:02:08.155Z,99275.06
2023-04-25T04:06:11.827Z,99277.16
2023-04-25T04:10:21.027Z,99261.31
2023-04-25T04:14:23.158Z,99266.44
2023-04-25T04:18:26.356Z,99264.75
2023-04-25T04:22:29.257Z,99270.88
2023-04-25T04:26:36.128Z,99266.16
2023-04-25T04:30:58.774Z,99267.47
2023-04-25T04:35:01.819Z,99262.41
2023-04-25T04:39:04.655Z,99263.59
2023-04-25T04:43:27.004Z,99270.47
2023-04-25T04:47:44.013Z,99275.88
2023-04-25T04:52:08.711Z,99277.72
2023-04-25T04:56:29.217Z,99272.97
2023-04-25T05:00:54.338Z,99283.81
2023-04-25T05:05:09.365Z,99284.69
2023-04-25T05:09:31.692Z,99283.34
2023-04-25T05:14:00.219Z,99291.50
2023-04-25T05:18:23.776Z,99286.72
2023-04-25T05:22:44.795Z,99289.84
2023-04-25T05:26:57.005Z,99289.84
2023-04-25T05:31:12.001Z,99289.56
2023-04-25T05:35:22.207Z,99290.25
2023-04-25T05:39:26.277Z,99282.75
2023-04-25T05:43:50.923Z,99293.66
2023-04-25T05:48:16.186Z,99282.41
2023-04-25T05:52:33.850Z,99288.28
2023-04-25T05:56:43.804Z,99292.91
2023-04-25T06:00:47.007Z,99294.19
2023-04-25T06:04:51.057Z,99296.53
2023-04-25T06:08:53.338Z,99295.09
2023-04-25T06:12:55.358Z,99302.97
2023-04-25T06:16:58.816Z,99307.31
2023-04-25T06:21:02.548Z,99307.44
2023-04-25T06:25:05.426Z,99317.63
2023-04-25T06:29:08.659Z,99317.91
2023-04-25T06:33:11.229Z,99329.03
2023-04-25T06:37:15.105Z,99350.34
2023-04-25T06:41:17.625Z,99373.53
2023-04-25T06:45:19.828Z,99370.53
2023-04-25T06:49:21.936Z,99368.53
2023-04-25T06:53:23.970Z,99363.47
2023-04-25T06:57:32.125Z,99371.00
2023-04-25T07:01:46.522Z,99371.50
2023-04-25T07:06:00.140Z,99371.28
2023-04-25T07:10:02.468Z,99377.56
2023-04-25T07:14:04.849Z,99375.63
2023-04-25T07:18:07.117Z,99368.28
2023-04-25T07:22:09.384Z,99364.78
2023-04-25T07:26:14.604Z,99360.28
2023-04-25T07:30:36.125Z,99361.72
2023-04-25T07:34:40.356Z,99347.00
2023-04-25T07:38:42.652Z,99345.72
2023-04-25T07:42:44.860Z,99358.38
2023-04-25T07:46:49.255Z,99356.09
2023-04-25T07:50:51.549Z,99346.44
2023-04-25T07:54:53.578Z,99355.28
2023-04-25T07:59:02.781Z,99357.91
2023-04-25T08:03:06.045Z,99350.31
2023-04-25T08:07:08.719Z,99351.19
2023-04-25T08:11:17.932Z,99354.38
2023-04-25T08:15:20.168Z,99354.16
2023-04-25T08:19:23.063Z,99386.69
2023-04-25T08:23:25.371Z,99379.63
2023-04-25T08:27:32.710Z,99370.88
2023-04-25T08:31:35.140Z,99371.19
2023-04-25T08:35:39.303Z,99391.84
2023-04-25T08:39:43.097Z,99388.19
2023-04-25T08:44:05.431Z,99400.50
2023-04-25T08:48:13.446Z,99437.25
2023-04-25T08:52:17.771Z,99442.25
2023-04-25T08:56:23.347Z,99414.25
2023-04-25T09:00:25.676Z,99416.88
2023-04-25T09:04:27.731Z,99417.59
2023-04-25T09:08:31.198Z,99400.94
2023-04-25T09:12:33.716Z,99426.63
2023-04-25T09:16:38.238Z,99453.31
2023-04-25T09:21:01.914Z,99425.47
2023-04-25T09:25:13.379Z,99435.75
2023-04-25T09:29:17.404Z,99435.88
2023-04-25T09:33:19.994Z,99438.63
2023-04-25T09:37:27.350Z,99444.66
2023-04-25T09:41:42.214Z,99443.47
2023-04-25T09:45:46.774Z,99445.38
2023-04-25T09:49:51.180Z,99446.94
2023-04-25T09:53:54.972Z,99468.78
2023-04-25T09:58:10.131Z,99461.50
2023-04-25T10:02:13.529Z,99457.09
2023-04-25T10:06:20.657Z,99455.91
2023-04-25T10:10:29.248Z,99452.06
2023-04-25T10:14:33.160Z,99446.94
2023-04-25T10:18:35.437Z,99453.41
2023-04-25T10:22:45.103Z,99466.06
2023-04-25T10:26:49.002Z,99459.72
2023-04-25T10:31:02.611Z,99455.66
2023-04-25T10:35:26.663Z,99458.06
2023-04-25T10:39:28.787Z,99463.09
2023-04-25T10:43:47.126Z,99455.06
2023-04-25T10:47:49.372Z,99466.66
2023-04-25T10:51:54.880Z,99457.41
2023-04-25T10:55:57.625Z,99464.13
2023-04-25T11:00:21.755Z,99465.34
2023-04-25T11:04:32.946Z,99481.44
2023-04-25T11:08:52.150Z,99458.16
2023-04-25T11:12:54.792Z,99475.00
2023-04-25T11:17:00.402Z,99470.59
2023-04-25T11:21:03.981Z,99471.94
2023-04-25T11:25:07.897Z,99478.34
2023-04-25T11:29:10.080Z,99491.25
2023-04-25T11:33:12.216Z,99526.88
2023-04-25T11:37:14.969Z,99490.88
2023-04-25T11:41:17.202Z,99546.84
2023-04-25T11:45:19.767Z,99524.03
2023-04-25T11:49:23.131Z,99538.59
2023-04-25T11:53:25.889Z,99531.91
2023-04-25T11:57:27.943Z,99526.66
2023-04-25T12:01:35.549Z,99556.78
2023-04-25T12:05:38.942Z,99543.59
2023-04-25T12:09:42.503Z,99538.72
2023-04-25T12:13:45.023Z,99553.06
2023-04-25T12:17:52.480Z,99545.41
2023-04-25T12:21:58.506Z,99517.91
2023-04-25T12:26:04.122Z,99566.09
2023-04-25T12:30:08.125Z,99542.91
2023-04-25T12:34:10.243Z,99531.78
2023-04-25T12:38:12.464Z,99561.31
2023-04-25T12:42:14.494Z,99525.69
2023-04-25T12:46:16.562Z,99550.78
2023-04-25T12:50:18.290Z,99557.81
2023-04-25T12:54:20.725Z,99558.91
2023-04-25T12:58:22.918Z,99547.06
2023-04-25T13:02:25.102Z,99537.06
2023-04-25T13:06:27.511Z,99548.25
2023-04-25T13:10:29.885Z,99551.59
2023-04-25T13:14:31.916Z,99568.47
2023-04-25T13:18:34.440Z,99571.53
2023-04-25T13:22:38.669Z,99570.03
2023-04-25T13:26:41.034Z,99575.78
2023-04-25T13:30:43.663Z,99573.50
2023-04-25T13:34:46.258Z,99573.88
2023-04-25T13:38:50.118Z,99576.25
2023-04-25T13:42:52.308Z,99578.16
2023-04-25T13:46:54.448Z,99566.81
2023-04-25T13:50:56.470Z,99565.50
2023-04-25T13:54:59.219Z,99569.31
2023-04-25T13:59:01.818Z,99572.41
2023-04-25T14:03:06.050Z,99584.00
2023-04-25T14:07:08.179Z,99585.94
2023-04-25T14:11:10.343Z,99579.09
2023-04-25T14:15:12.392Z,99554.22
2023-04-25T14:19:14.569Z,99557.72
2023-04-25T14:23:18.479Z,99534.97
2023-04-25T14:27:20.614Z,99532.94
2023-04-25T14:31:23.315Z,99512.28
2023-04-25T14:35:25.580Z,99484.09
2023-04-25T14:39:27.616Z,99488.28
2023-04-25T14:43:29.693Z,99470.84
2023-04-25T14:47:32.813Z,99472.50
2023-04-25T14:51:34.889Z,99487.50
2023-04-25T14:55:37.080Z,99455.75
2023-04-25T14:59:39.696Z,99444.41
2023-04-25T15:03:42.723Z,99440.50
2023-04-25T15:07:45.301Z,99446.31
2023-04-25T15:11:47.464Z,99453.25
2023-04-25T15:15:52.221Z,99439.28
2023-04-25T15:19:55.623Z,99439.53
2023-04-25T15:23:58.006Z,99450.16
2023-04-25T15:28:01.004Z,99454.31
2023-04-25T15:32:03.084Z,99452.16
2023-04-25T15:36:06.112Z,99445.22
2023-04-25T15:40:11.886Z,99449.41
2023-04-25T15:44:13.906Z,99448.59
2023-04-25T15:48:16.260Z,99456.56
2023-04-25T15:52:21.836Z,99449.97
2023-04-25T15:56:24.209Z,99451.50
2023-04-25T16:00:26.501Z,99456.31
2023-04-25T16:04:35.286Z,99449.94
2023-04-25T16:08:37.406Z,99452.44
2023-04-25T16:12:40.937Z,99455.75
2023-04-25T16:16:44.799Z,99456.63
2023-04-25T16:20:46.811Z,99463.16
2023-04-25T16:24:49.018Z,99462.50
2023-04-25T16:28:51.035Z,99467.63
2023-04-25T16:32:53.223Z,99468.53
2023-04-25T16:36:56.371Z,99477.16
2023-04-25T16:40:58.538Z,99481.78
2023-04-25T16:45:00.547Z,99485.84
2023-04-25T16:49:02.740Z,99484.69
2023-04-25T16:53:05.037Z,99481.53
2023-04-25T16:57:10.465Z,99487.19
2023-04-25T17:01:16.103Z,99490.34
2023-04-25T17:05:18.845Z,99496.09
2023-04-25T17:09:21.422Z,99501.25
2023-04-25T17:13:30.867Z,99499.16
2023-04-25T17:17:33.569Z,99516.31
2023-04-25T17:21:35.758Z,99516.25
2023-04-25T17:25:37.761Z,99529.34
2023-04-25T17:29:39.928Z,99536.03
2023-04-25T17:33:42.192Z,99540.84
2023-04-25T17:37:45.377Z,99528.09
2023-04-25T17:41:47.442Z,99538.94
2023-04-25T17:45:49.580Z,99544.28
2023-04-25T17:49:51.714Z,99559.56
2023-04-25T17:53:53.801Z,99548.41
2023-04-25T17:57:56.470Z,99557.38
2023-04-25T18:02:00.013Z,99568.69
2023-04-25T18:06:02.148Z,99563.59
2023-04-25T18:10:08.771Z,99569.13
2023-04-25T18:14:14.534Z,99583.84
2023-04-25T18:18:20.387Z,99584.75
2023-04-25T18:22:23.260Z,99588.28
2023-04-25T18:26:25.393Z,99597.19
2023-04-25T18:30:27.586Z,99600.16
2023-04-25T18:34:29.940Z,99611.66
2023-04-25T18:38:49.678Z,99619.91
2023-04-25T18:42:51.783Z,99623.56
2023-04-25T18:46:53.752Z,99612.97
2023-04-25T18:50:56.128Z,99631.13
2023-04-25T18:54:58.212Z,99635.72
2023-04-25T18:59:00.501Z,99633.41
2023-04-25T19:03:04.485Z,99638.63
2023-04-25T19:07:06.796Z,99637.13
2023-04-25T19:11:20.637Z,99642.59
2023-04-25T19:15:23.087Z,99654.44
2023-04-25T19:19:25.535Z,99642.19
2023-04-25T19:23:27.734Z,99646.69
2023-04-25T19:27:29.716Z,99649.44
2023-04-25T19:31:33.440Z,99670.31
2023-04-25T19:35:35.523Z,99670.16
2023-04-25T19:39:37.885Z,99667.94
2023-04-25T19:43:39.546Z,99672.69
2023-04-25T19:47:42.716Z,99673.38
2023-04-25T19:51:45.552Z,99689.09
2023-04-25T19:55:47.882Z,99677.94
2023-04-25T19:59:50.116Z,99674.94
2023-04-25T20:03:52.353Z,99666.41
2023-04-25T20:07:54.743Z,99662.81
2023-04-25T20:11:56.922Z,99676.03
2023-04-25T20:16:00.658Z,99670.72
2023-04-25T20:20:06.530Z,99666.50
2023-04-25T20:24:08.748Z,99669.78
2023-04-25T20:28:10.701Z,99663.16
2023-04-25T20:32:12.950Z,99667.34
2023-04-25T20:36:15.646Z,99674.53
2023-04-25T20:40:17.684Z,99675.22
2023-04-25T20:44:22.686Z,99669.72
2023-04-25T20:48:24.801Z,99678.94
2023-04-25T20:52:26.872Z,99679.41
2023-04-25T20:56:29.355Z,99674.84
2023-04-25T21:00:31.485Z,99678.41
2023-04-25T21:04:33.534Z,99683.06
2023-04-25T21:08:35.607Z,99677.94
2023-04-25T21:12:37.798Z,99692.81
2023-04-25T21:16:40.886Z,99694.47
2023-04-25T21:20:43.033Z,99689.13
2023-04-25T21:24:45.359Z,99682.59
2023-04-25T21:28:47.548Z,99677.25
2023-04-25T21:32:51.361Z,99683.44
2023-04-25T21:36:53.504Z,99676.25
2023-04-25T21:40:55.546Z,99676.72
2023-04-25T21:44:57.612Z,99680.88
2023-04-25T21:48:59.778Z,99678.31
2023-04-25T21:53:01.848Z,99679.56
2023-04-25T21:57:03.866Z,99680.41
2023-04-25T22:01:05.946Z,99676.91
2023-04-25T22:05:08.981Z,99684.66
2023-04-25T22:09:11.259Z,99691.91
2023-04-25T22:13:15.029Z,99692.53
2023-04-25T22:17:17.786Z,99688.69
2023-04-25T22:21:20.373Z,99690.47
2023-04-25T22:25:22.350Z,99691.75
2023-04-25T22:29:24.427Z,99696.53
2023-04-25T22:33:26.506Z,99693.16
2023-04-25T22:37:28.978Z,99702.81
2023-04-25T22:41:31.167Z,99697.59
2023-04-25T22:45:34.482Z,99688.09
2023-04-25T22:49:36.535Z,99690.72
2023-04-25T22:53:41.343Z,99684.72
2023-04-25T22:57:43.471Z,99697.53
2023-04-25T23:01:45.544Z,99688.81
2023-04-25T23:05:47.891Z,99709.00
2023-04-25T23:09:50.128Z,99704.75
2023-04-25T23:13:52.238Z,99706.38
2023-04-25T23:17:54.363Z,99702.59
2023-04-25T23:21:56.446Z,99698.97
2023-04-25T23:25:58.427Z,99705.31
2023-04-25T23:30:00.551Z,99706.78
2023-04-25T23:34:02.806Z,99712.50
2023-04-25T23:38:04.896Z,99720.81
2023-04-25T23:42:06.611Z,99716.78
2023-04-25T23:46:09.502Z,99726.72
2023-04-25T23:50:11.893Z,99726.44
2023-04-25T23:54:15.302Z,99714.94
2023-04-25T23:58:17.376Z,99710.97
